Current Conditions MVFR
Mostly Cloudy Conditions
(Broken 2000ft & Broken 2400ft
& Broken 2800ft)



Pressure
1006 (Hpa) - 29.7 (inHG)
Visibility

9.7 (km) - 6.0 (miles)
Temperature
17  °C
Temperature
12  °C
  Dewpoint
73  %
 Humidity
N/A
  Windchill
Wind Speed
11  kts
13  mph
21  km/h
5.8  m/s
Wind Direction
N
45°
E
90°
135°
S
180°
225°
W
270°
315°
 240°

West South
West
Airport METAR Data RAW
EHRD (-14ft) 300855Z AUTO 24011KT 210V290 9999 BKN020/// BKN024/// BKN028/// 17/12 Q1006 NOSIG

Calculated Cloudbase 2965ft : 8.7°C

ISA Deviation +2°C

Updated Thu 30th May 10:55
TAF Data RAW
EHRD 300440Z 3006/3112 21004KT 9999 FEW035
BECMG
3008/3011 29010KT
BECMG
3017/3020 26006KT SCT008 BKN012
PROB40

TEMPO
3021/3107 6000 -RADZ SCT004 BKN005
BECMG
3107/3109 SCT020
End
API Info
Data Provided by
https://www.checkwx.com/weather/EHRD

Aviation Weather providing METAR, TAF, AIRMET, SIGMET and OUTLOOK Weather Reports
© Info
CSS/SVG/PHP scripts were developed for use in the template 2015-2024

Guide Info provided by Metar-Wikipedia